SBOSBO BLQ / LIPE
Speedbird OnlineSpeedbird Online BLQ / LIPE

Bologna Guglielmo Marconi Airport
01:28 0.1°C

Location Bologna, Italy
Latitude: 44.5354
Longitude: 11.2887
Web Airport Website | Wikipedia
Altitude 37 Meter / 123 Feet
Distance 1,133 KM / 704 Miles
from London.
Time Zone UTC +1 hours (Europe/Rome)
Codes IATA: BLQ
ICAO: LIPE
Currency £1 equals EUR 1.13
Runways
RunwayLength (m)Surface
122803Asphalt
302803Asphalt
Radio
TypeDescriptionFrequency
APPAPP120.1
ATISATIS134.875
GNDGND129.925
TWRTWR120.8
Live ATC
METAR LIPE 081420Z 05006KT 350V090 9999 SCT040 BKN060 06/M04 Q1035
TAF TAF LIPE 081100Z 0812/0912 06010KT 9999 FEW040 BECMG 0815/0817 VRB05KT BECMG 0821/0824 30010KT
Weather As Of 09 Feb 2023 01:28
Description Broken clouds
Wind 9 km/h from West (260°)
Cloud Cover 75%
Precipitation Rain: none, Snow: none
Sunrise 07:24
Sunset 17:33
Lounges Marconi Business Lounge , Terminal A
Rotations During the last 90 days there were
175 flights from LHR
176 flights to LHR



Support Speedbird Online

© 2017-2023 Speedbird Online